sensor_id;sensor_type;location;lat;lon;timestamp;pressure;altitude;pressure_sealevel;temperature;humidity
75192;BME280;63771;52.580;9.734;2023-02-23T00:01:15;100822.78;;;5.30;94.10
75192;BME280;63771;52.580;9.734;2023-02-23T00:03:42;100812.78;;;5.23;93.86
75192;BME280;63771;52.580;9.734;2023-02-23T00:06:08;100823.94;;;5.25;94.02
75192;BME280;63771;52.580;9.734;2023-02-23T00:08:34;100825.97;;;5.20;94.28
75192;BME280;63771;52.580;9.734;2023-02-23T00:11:05;100822.41;;;5.18;94.05
75192;BME280;63771;52.580;9.734;2023-02-23T00:13:32;100824.59;;;5.15;94.18
75192;BME280;63771;52.580;9.734;2023-02-23T00:16:23;100819.38;;;5.14;94.19
75192;BME280;63771;52.580;9.734;2023-02-23T00:18:55;100816.22;;;5.08;94.00
75192;BME280;63771;52.580;9.734;2023-02-23T00:21:26;100817.88;;;5.07;94.28
75192;BME280;63771;52.580;9.734;2023-02-23T00:24:01;100826.00;;;5.05;94.20
75192;BME280;63771;52.580;9.734;2023-02-23T00:26:28;100824.97;;;5.03;94.09
75192;BME280;63771;52.580;9.734;2023-02-23T00:28:56;100820.47;;;5.00;94.01
75192;BME280;63771;52.580;9.734;2023-02-23T00:31:23;100822.50;;;4.95;93.96
75192;BME280;63771;52.580;9.734;2023-02-23T00:33:51;100817.16;;;4.92;94.01
75192;BME280;63771;52.580;9.734;2023-02-23T00:36:19;100822.75;;;4.90;93.66
75192;BME280;63771;52.580;9.734;2023-02-23T00:38:44;100815.75;;;4.87;93.81
75192;BME280;63771;52.580;9.734;2023-02-23T00:41:12;100808.09;;;4.79;94.06
75192;BME280;63771;52.580;9.734;2023-02-23T00:43:40;100818.53;;;4.82;94.38
75192;BME280;63771;52.580;9.734;2023-02-23T00:46:12;100820.44;;;4.76;94.28
75192;BME280;63771;52.580;9.734;2023-02-23T00:48:40;100823.84;;;4.76;93.85
75192;BME280;63771;52.580;9.734;2023-02-23T00:51:05;100829.47;;;4.74;94.06
75192;BME280;63771;52.580;9.734;2023-02-23T00:53:31;100823.19;;;4.70;94.07
75192;BME280;63771;52.580;9.734;2023-02-23T00:55:57;100829.84;;;4.69;94.18
75192;BME280;63771;52.580;9.734;2023-02-23T00:58:24;100826.28;;;4.67;93.98
75192;BME280;63771;52.580;9.734;2023-02-23T01:00:49;100826.13;;;4.66;93.80
75192;BME280;63771;52.580;9.734;2023-02-23T01:03:18;100824.16;;;4.63;94.08
75192;BME280;63771;52.580;9.734;2023-02-23T01:05:44;100825.63;;;4.61;93.61
75192;BME280;63771;52.580;9.734;2023-02-23T01:08:10;100829.59;;;4.59;93.82
75192;BME280;63771;52.580;9.734;2023-02-23T01:10:40;100828.56;;;4.57;94.17
75192;BME280;63771;52.580;9.734;2023-02-23T01:13:09;100825.38;;;4.51;94.26
75192;BME280;63771;52.580;9.734;2023-02-23T01:15:41;100831.69;;;4.55;94.20
75192;BME280;63771;52.580;9.734;2023-02-23T01:18:08;100827.31;;;4.54;94.38
75192;BME280;63771;52.580;9.734;2023-02-23T01:20:34;100831.50;;;4.53;94.46
75192;BME280;63771;52.580;9.734;2023-02-23T01:23:00;100831.50;;;4.53;94.46
75192;BME280;63771;52.580;9.734;2023-02-23T01:25:26;100840.16;;;4.55;94.53
75192;BME280;63771;52.580;9.734;2023-02-23T01:27:54;100838.66;;;4.57;94.51
75192;BME280;63771;52.580;9.734;2023-02-23T01:30:19;100833.06;;;4.60;94.92
75192;BME280;63771;52.580;9.734;2023-02-23T01:32:45;100831.19;;;4.66;94.94
75192;BME280;63771;52.580;9.734;2023-02-23T01:35:10;100832.06;;;4.66;95.16
75192;BME280;63771;52.580;9.734;2023-02-23T01:37:38;100843.56;;;4.71;95.13
75192;BME280;63771;52.580;9.734;2023-02-23T01:40:06;100842.28;;;4.75;95.31
75192;BME280;63771;52.580;9.734;2023-02-23T01:42:38;100835.16;;;4.80;95.31
75192;BME280;63771;52.580;9.734;2023-02-23T01:47:58;100833.22;;;4.93;95.76
75192;BME280;63771;52.580;9.734;2023-02-23T01:50:30;100832.94;;;4.98;95.56
75192;BME280;63771;52.580;9.734;2023-02-23T01:52:56;100829.44;;;5.05;96.26
75192;BME280;63771;52.580;9.734;2023-02-23T01:55:25;100826.56;;;5.18;96.83
75192;BME280;63771;52.580;9.734;2023-02-23T01:57:53;100839.44;;;5.28;96.85
75192;BME280;63771;52.580;9.734;2023-02-23T02:00:21;100837.69;;;5.36;96.55
75192;BME280;63771;52.580;9.734;2023-02-23T02:02:50;100829.22;;;5.35;96.32
75192;BME280;63771;52.580;9.734;2023-02-23T02:05:17;100829.34;;;5.37;96.16
75192;BME280;63771;52.580;9.734;2023-02-23T02:07:45;100840.56;;;5.39;95.70
75192;BME280;63771;52.580;9.734;2023-02-23T02:10:12;100838.03;;;5.39;95.94
75192;BME280;63771;52.580;9.734;2023-02-23T02:12:39;100835.78;;;5.42;96.38
75192;BME280;63771;52.580;9.734;2023-02-23T02:15:06;100834.34;;;5.44;96.48
75192;BME280;63771;52.580;9.734;2023-02-23T02:17:51;100837.06;;;5.54;97.43
75192;BME280;63771;52.580;9.734;2023-02-23T02:26:37;100832.53;;;5.92;97.67
75192;BME280;63771;52.580;9.734;2023-02-23T02:31:53;100836.31;;;6.04;97.44
75192;BME280;63771;52.580;9.734;2023-02-23T02:37:19;100833.53;;;6.18;97.62
75192;BME280;63771;52.580;9.734;2023-02-23T02:48:12;100832.28;;;6.57;96.34
75192;BME280;63771;52.580;9.734;2023-02-23T02:50:43;100834.69;;;6.64;96.33
75192;BME280;63771;52.580;9.734;2023-02-23T02:53:13;100830.09;;;6.68;96.09
75192;BME280;63771;52.580;9.734;2023-02-23T02:55:45;100826.94;;;6.71;95.77
75192;BME280;63771;52.580;9.734;2023-02-23T02:58:13;100823.81;;;6.73;95.90
75192;BME280;63771;52.580;9.734;2023-02-23T03:00:45;100830.22;;;6.78;95.78
75192;BME280;63771;52.580;9.734;2023-02-23T03:03:33;100830.53;;;6.82;95.82
75192;BME280;63771;52.580;9.734;2023-02-23T03:06:21;100829.63;;;6.81;95.86
75192;BME280;63771;52.580;9.734;2023-02-23T03:18:05;100834.56;;;6.79;95.37
75192;BME280;63771;52.580;9.734;2023-02-23T03:20:58;100844.84;;;6.81;95.35
75192;BME280;63771;52.580;9.734;2023-02-23T03:30:03;100841.56;;;6.73;94.98
75192;BME280;63771;52.580;9.734;2023-02-23T03:32:51;100853.31;;;6.73;95.17
75192;BME280;63771;52.580;9.734;2023-02-23T03:41:27;100859.75;;;6.69;95.24
75192;BME280;63771;52.580;9.734;2023-02-23T03:44:16;100857.97;;;6.68;95.21
75192;BME280;63771;52.580;9.734;2023-02-23T03:47:03;100854.38;;;6.66;95.40
75192;BME280;63771;52.580;9.734;2023-02-23T03:49:49;100845.56;;;6.63;95.83
75192;BME280;63771;52.580;9.734;2023-02-23T03:52:40;100854.50;;;6.68;95.69
75192;BME280;63771;52.580;9.734;2023-02-23T03:55:29;100839.91;;;6.65;95.98
75192;BME280;63771;52.580;9.734;2023-02-23T03:58:22;100852.44;;;6.72;96.06
75192;BME280;63771;52.580;9.734;2023-02-23T04:01:08;100839.75;;;6.72;96.16
75192;BME280;63771;52.580;9.734;2023-02-23T04:03:56;100845.44;;;6.78;96.20
75192;BME280;63771;52.580;9.734;2023-02-23T04:06:43;100845.75;;;6.82;95.90
75192;BME280;63771;52.580;9.734;2023-02-23T04:09:29;100849.31;;;6.84;96.10
75192;BME280;63771;52.580;9.734;2023-02-23T04:13:23;100854.69;;;6.87;95.91
75192;BME280;63771;52.580;9.734;2023-02-23T04:16:00;100846.50;;;6.89;95.82
75192;BME280;63771;52.580;9.734;2023-02-23T04:18:32;100846.66;;;6.91;95.44
75192;BME280;63771;52.580;9.734;2023-02-23T04:20:59;100840.81;;;6.92;95.59
75192;BME280;63771;52.580;9.734;2023-02-23T04:23:25;100844.41;;;6.94;95.96
75192;BME280;63771;52.580;9.734;2023-02-23T04:25:52;100837.41;;;6.91;95.70
75192;BME280;63771;52.580;9.734;2023-02-23T04:28:18;100837.84;;;6.96;95.32
75192;BME280;63771;52.580;9.734;2023-02-23T04:30:44;100844.72;;;6.97;95.39
75192;BME280;63771;52.580;9.734;2023-02-23T04:33:10;100833.81;;;6.98;95.48
75192;BME280;63771;52.580;9.734;2023-02-23T04:35:35;100837.25;;;6.98;95.38
75192;BME280;63771;52.580;9.734;2023-02-23T04:38:01;100840.66;;;6.99;95.57
75192;BME280;63771;52.580;9.734;2023-02-23T04:40:27;100836.06;;;6.95;95.44
75192;BME280;63771;52.580;9.734;2023-02-23T04:42:52;100846.81;;;7.01;95.46
75192;BME280;63771;52.580;9.734;2023-02-23T04:45:18;100847.84;;;7.03;95.19
75192;BME280;63771;52.580;9.734;2023-02-23T04:47:44;100836.94;;;7.04;95.23
75192;BME280;63771;52.580;9.734;2023-02-23T04:50:10;100840.22;;;7.03;95.13
75192;BME280;63771;52.580;9.734;2023-02-23T04:52:36;100832.03;;;6.97;95.37
75192;BME280;63771;52.580;9.734;2023-02-23T04:55:04;100831.59;;;7.01;95.25
75192;BME280;63771;52.580;9.734;2023-02-23T04:57:29;100828.16;;;7.00;95.04
75192;BME280;63771;52.580;9.734;2023-02-23T04:59:55;100844.28;;;7.01;95.58
75192;BME280;63771;52.580;9.734;2023-02-23T05:02:20;100847.56;;;7.00;95.65
75192;BME280;63771;52.580;9.734;2023-02-23T05:04:45;100846.06;;;7.02;95.43
75192;BME280;63771;52.580;9.734;2023-02-23T05:07:10;100847.09;;;7.04;95.14
75192;BME280;63771;52.580;9.734;2023-02-23T05:09:36;100848.91;;;7.05;95.16
75192;BME280;63771;52.580;9.734;2023-02-23T05:12:01;100849.19;;;7.08;95.08
75192;BME280;63771;52.580;9.734;2023-02-23T05:14:26;100854.25;;;7.08;95.05
75192;BME280;63771;52.580;9.734;2023-02-23T05:16:52;100851.72;;;7.08;94.89
75192;BME280;63771;52.580;9.734;2023-02-23T05:19:17;100852.59;;;7.09;94.86
75192;BME280;63771;52.580;9.734;2023-02-23T05:21:43;100853.50;;;7.09;94.90
75192;BME280;63771;52.580;9.734;2023-02-23T05:24:09;100856.22;;;7.11;94.87
75192;BME280;63771;52.580;9.734;2023-02-23T05:26:34;100865.47;;;7.10;94.91
75192;BME280;63771;52.580;9.734;2023-02-23T05:29:00;100862.00;;;7.10;94.73
75192;BME280;63771;52.580;9.734;2023-02-23T05:31:26;100866.94;;;7.08;94.69
75192;BME280;63771;52.580;9.734;2023-02-23T05:33:51;100866.94;;;7.08;94.74
75192;BME280;63771;52.580;9.734;2023-02-23T05:36:19;100862.63;;;7.07;94.68
75192;BME280;63771;52.580;9.734;2023-02-23T05:38:46;100862.63;;;7.07;94.72
75192;BME280;63771;52.580;9.734;2023-02-23T05:41:15;100865.16;;;7.07;94.91
75192;BME280;63771;52.580;9.734;2023-02-23T05:43:40;100856.22;;;7.11;94.84
75192;BME280;63771;52.580;9.734;2023-02-23T05:46:07;100863.66;;;7.09;95.07
75192;BME280;63771;52.580;9.734;2023-02-23T05:48:33;100853.50;;;7.09;95.06
75192;BME280;63771;52.580;9.734;2023-02-23T05:51:07;100847.84;;;7.12;95.14
75192;BME280;63771;52.580;9.734;2023-02-23T05:53:33;100866.34;;;7.19;94.83
75192;BME280;63771;52.580;9.734;2023-02-23T05:56:00;100863.03;;;7.20;94.63
75192;BME280;63771;52.580;9.734;2023-02-23T05:58:26;100869.94;;;7.21;94.53
75192;BME280;63771;52.580;9.734;2023-02-23T06:00:52;100870.84;;;7.22;94.48
75192;BME280;63771;52.580;9.734;2023-02-23T06:03:18;100869.03;;;7.21;94.66
75192;BME280;63771;52.580;9.734;2023-02-23T06:05:54;100880.97;;;7.22;94.76
75192;BME280;63771;52.580;9.734;2023-02-23T06:08:21;100875.00;;;7.21;94.63
75192;BME280;63771;52.580;9.734;2023-02-23T06:10:47;100881.88;;;7.22;94.95
75192;BME280;63771;52.580;9.734;2023-02-23T06:13:13;100884.28;;;7.21;94.83
75192;BME280;63771;52.580;9.734;2023-02-23T06:15:39;100878.59;;;7.23;94.81
75192;BME280;63771;52.580;9.734;2023-02-23T06:18:05;100881.25;;;7.25;94.55
75192;BME280;63771;52.580;9.734;2023-02-23T06:20:30;100886.19;;;7.23;94.70
75192;BME280;63771;52.580;9.734;2023-02-23T06:22:56;100883.97;;;7.26;94.41
75192;BME280;63771;52.580;9.734;2023-02-23T06:25:22;100885.44;;;7.24;94.42
75192;BME280;63771;52.580;9.734;2023-02-23T06:27:47;100895.16;;;7.28;94.54
75192;BME280;63771;52.580;9.734;2023-02-23T06:30:12;100891.84;;;7.29;94.71
75192;BME280;63771;52.580;9.734;2023-02-23T06:32:38;100889.31;;;7.29;94.48
75192;BME280;63771;52.580;9.734;2023-02-23T06:35:04;100895.28;;;7.30;94.69
75192;BME280;63771;52.580;9.734;2023-02-23T06:37:31;100900.69;;;7.33;94.61
75192;BME280;63771;52.580;9.734;2023-02-23T06:39:56;100904.88;;;7.32;94.60
75192;BME280;63771;52.580;9.734;2023-02-23T06:42:23;100908.88;;;7.30;94.86
75192;BME280;63771;52.580;9.734;2023-02-23T06:44:48;100908.28;;;7.33;94.66
75192;BME280;63771;52.580;9.734;2023-02-23T06:47:14;100902.47;;;7.34;94.65
75192;BME280;63771;52.580;9.734;2023-02-23T06:49:39;100902.47;;;7.34;94.73
75192;BME280;63771;52.580;9.734;2023-02-23T06:52:06;100912.47;;;7.32;94.94
75192;BME280;63771;52.580;9.734;2023-02-23T06:54:32;100908.28;;;7.33;95.02
75192;BME280;63771;52.580;9.734;2023-02-23T06:56:58;100903.06;;;7.31;95.21
75192;BME280;63771;52.580;9.734;2023-02-23T06:59:24;100912.34;;;7.31;95.16
75192;BME280;63771;52.580;9.734;2023-02-23T07:01:49;100916.66;;;7.32;95.11
75192;BME280;63771;52.580;9.734;2023-02-23T07:04:15;100918.31;;;7.31;95.22
75192;BME280;63771;52.580;9.734;2023-02-23T07:06:40;100920.09;;;7.32;95.01
75192;BME280;63771;52.580;9.734;2023-02-23T07:09:05;100917.56;;;7.32;95.10
75192;BME280;63771;52.580;9.734;2023-02-23T07:11:31;100931.13;;;7.33;95.24
75192;BME280;63771;52.580;9.734;2023-02-23T07:13:57;100925.16;;;7.32;95.09
75192;BME280;63771;52.580;9.734;2023-02-23T07:16:23;100918.31;;;7.31;95.15
75192;BME280;63771;52.580;9.734;2023-02-23T07:18:49;100926.94;;;7.33;95.20
75192;BME280;63771;52.580;9.734;2023-02-23T07:21:15;100920.97;;;7.33;95.04
75192;BME280;63771;52.580;9.734;2023-02-23T07:23:40;100934.69;;;7.35;94.95
75192;BME280;63771;52.580;9.734;2023-02-23T07:26:05;100925.16;;;7.32;95.15
75192;BME280;63771;52.580;9.734;2023-02-23T07:28:31;100922.63;;;7.32;95.03
75192;BME280;63771;52.580;9.734;2023-02-23T07:30:57;100914.88;;;7.31;95.36
75192;BME280;63771;52.580;9.734;2023-02-23T07:33:23;100918.13;;;7.30;95.42
75192;BME280;63771;52.580;9.734;2023-02-23T07:35:50;100923.38;;;7.31;95.95
75192;BME280;63771;52.580;9.734;2023-02-23T07:38:16;100923.38;;;7.31;95.68
75192;BME280;63771;52.580;9.734;2023-02-23T07:40:41;100925.91;;;7.31;95.75
75192;BME280;63771;52.580;9.734;2023-02-23T07:43:06;100931.72;;;7.30;95.61
75192;BME280;63771;52.580;9.734;2023-02-23T07:45:32;100934.25;;;7.30;95.92
75192;BME280;63771;52.580;9.734;2023-02-23T07:47:57;100931.56;;;7.29;95.88
75192;BME280;63771;52.580;9.734;2023-02-23T07:50:24;100934.25;;;7.30;95.95
75192;BME280;63771;52.580;9.734;2023-02-23T07:52:50;100938.16;;;7.27;96.11
75192;BME280;63771;52.580;9.734;2023-02-23T07:55:16;100941.59;;;7.27;96.28
75192;BME280;63771;52.580;9.734;2023-02-23T07:57:41;100945.16;;;7.29;96.22
75192;BME280;63771;52.580;9.734;2023-02-23T08:00:07;100945.16;;;7.29;96.35
75192;BME280;63771;52.580;9.734;2023-02-23T08:02:32;100945.31;;;7.31;96.14
75192;BME280;63771;52.580;9.734;2023-02-23T08:04:58;100942.19;;;7.33;96.21
75192;BME280;63771;52.580;9.734;2023-02-23T08:07:24;100952.31;;;7.33;96.28
75192;BME280;63771;52.580;9.734;2023-02-23T08:09:52;100949.03;;;7.35;96.39
75192;BME280;63771;52.580;9.734;2023-02-23T08:12:18;100946.66;;;7.36;96.19
75192;BME280;63771;52.580;9.734;2023-02-23T08:14:43;100944.41;;;7.39;96.07
75192;BME280;63771;52.580;9.734;2023-02-23T08:17:09;100948.59;;;7.39;96.29
75192;BME280;63771;52.580;9.734;2023-02-23T08:19:35;100950.25;;;7.38;96.23
75192;BME280;63771;52.580;9.734;2023-02-23T08:22:02;100952.16;;;7.41;96.50
75192;BME280;63771;52.580;9.734;2023-02-23T08:24:27;100950.53;;;7.41;96.37
75192;BME280;63771;52.580;9.734;2023-02-23T08:26:55;100954.72;;;7.41;96.21
75192;BME280;63771;52.580;9.734;2023-02-23T08:29:20;100960.09;;;7.44;96.37
75192;BME280;63771;52.580;9.734;2023-02-23T08:31:46;100952.34;;;7.42;96.13
75192;BME280;63771;52.580;9.734;2023-02-23T08:34:12;100956.06;;;7.46;96.45
75192;BME280;63771;52.580;9.734;2023-02-23T08:36:37;100955.91;;;7.44;96.15
75192;BME280;63771;52.580;9.734;2023-02-23T08:39:04;100961.44;;;7.49;96.23
75192;BME280;63771;52.580;9.734;2023-02-23T08:41:32;100963.97;;;7.49;96.03
75192;BME280;63771;52.580;9.734;2023-02-23T08:43:58;100959.22;;;7.52;96.09
75192;BME280;63771;52.580;9.734;2023-02-23T08:46:23;100959.22;;;7.52;96.26
75192;BME280;63771;52.580;9.734;2023-02-23T08:48:48;100969.38;;;7.52;96.30
75192;BME280;63771;52.580;9.734;2023-02-23T08:51:14;100963.84;;;7.47;96.41
75192;BME280;63771;52.580;9.734;2023-02-23T08:53:40;100964.88;;;7.49;96.42
75192;BME280;63771;52.580;9.734;2023-02-23T08:56:06;100966.84;;;7.52;96.52
75192;BME280;63771;52.580;9.734;2023-02-23T08:58:34;100970.53;;;7.55;96.72
75192;BME280;63771;52.580;9.734;2023-02-23T09:01:00;100968.47;;;7.60;96.39
75192;BME280;63771;52.580;9.734;2023-02-23T09:03:26;100971.13;;;7.62;96.31
75192;BME280;63771;52.580;9.734;2023-02-23T09:05:56;100971.31;;;7.63;96.10
75192;BME280;63771;52.580;9.734;2023-02-23T09:08:22;100964.59;;;7.64;96.29
75192;BME280;63771;52.580;9.734;2023-02-23T09:10:47;100967.88;;;7.63;96.23
75192;BME280;63771;52.580;9.734;2023-02-23T09:13:13;100973.09;;;7.64;96.18
75192;BME280;63771;52.580;9.734;2023-02-23T09:15:40;100973.84;;;7.63;96.16
75192;BME280;63771;52.580;9.734;2023-02-23T09:18:07;100981.47;;;7.63;96.61
75192;BME280;63771;52.580;9.734;2023-02-23T09:20:32;100982.50;;;7.65;96.21
75192;BME280;63771;52.580;9.734;2023-02-23T09:22:58;100982.94;;;7.61;96.38
75192;BME280;63771;52.580;9.734;2023-02-23T09:25:23;100987.13;;;7.61;96.28
75192;BME280;63771;52.580;9.734;2023-02-23T09:27:51;100982.50;;;7.65;96.28
75192;BME280;63771;52.580;9.734;2023-02-23T09:30:18;100986.06;;;7.67;96.34
75192;BME280;63771;52.580;9.734;2023-02-23T09:32:48;100989.34;;;7.66;96.19
75192;BME280;63771;52.580;9.734;2023-02-23T09:35:14;100992.97;;;7.68;96.19
75192;BME280;63771;52.580;9.734;2023-02-23T09:37:44;100989.53;;;7.68;96.04
75192;BME280;63771;52.580;9.734;2023-02-23T09:40:14;100985.78;;;7.64;96.00
75192;BME280;63771;52.580;9.734;2023-02-23T09:45:26;100991.16;;;7.67;95.84
75192;BME280;63771;52.580;9.734;2023-02-23T09:50:30;100998.03;;;7.68;96.22
75192;BME280;63771;52.580;9.734;2023-02-23T09:53:23;101000.84;;;7.71;96.17
75192;BME280;63771;52.580;9.734;2023-02-23T09:55:52;101000.41;;;7.75;96.01
75192;BME280;63771;52.580;9.734;2023-02-23T09:58:32;101004.59;;;7.75;95.79
75192;BME280;63771;52.580;9.734;2023-02-23T10:06:27;101014.16;;;7.77;96.05
75192;BME280;63771;52.580;9.734;2023-02-23T10:19:38;101007.75;;;7.90;95.62
75192;BME280;63771;52.580;9.734;2023-02-23T10:22:08;101011.03;;;7.89;95.72
75192;BME280;63771;52.580;9.734;2023-02-23T10:24:40;101010.28;;;7.90;95.73
75192;BME280;63771;52.580;9.734;2023-02-23T10:27:19;101015.94;;;7.96;95.61
75192;BME280;63771;52.580;9.734;2023-02-23T10:29:54;101012.50;;;7.95;95.26
75192;BME280;63771;52.580;9.734;2023-02-23T10:33:14;100995.34;;;7.84;95.54
75192;BME280;63771;52.580;9.734;2023-02-23T10:35:43;101011.75;;;7.96;95.60
75192;BME280;63771;52.580;9.734;2023-02-23T10:38:17;101019.81;;;8.01;95.71
75192;BME280;63771;52.580;9.734;2023-02-23T10:40:49;101021.34;;;7.99;95.55
75192;BME280;63771;52.580;9.734;2023-02-23T10:43:14;101025.34;;;7.97;95.59
75192;BME280;63771;52.580;9.734;2023-02-23T10:45:45;101018.03;;;7.91;95.49
75192;BME280;63771;52.580;9.734;2023-02-23T10:48:34;101018.94;;;7.92;95.28
75192;BME280;63771;52.580;9.734;2023-02-23T10:51:03;101026.56;;;7.92;95.46
75192;BME280;63771;52.580;9.734;2023-02-23T10:53:35;101020.72;;;7.93;95.86
75192;BME280;63771;52.580;9.734;2023-02-23T10:56:07;101023.25;;;7.93;95.67
75192;BME280;63771;52.580;9.734;2023-02-23T10:58:48;101020.72;;;7.93;95.40
75192;BME280;63771;52.580;9.734;2023-02-23T11:01:31;101020.56;;;7.91;95.52
75192;BME280;63771;52.580;9.734;2023-02-23T11:04:26;101019.06;;;7.93;95.38
75192;BME280;63771;52.580;9.734;2023-02-23T11:07:29;101021.03;;;7.96;94.57
75192;BME280;63771;52.580;9.734;2023-02-23T11:09:56;101022.53;;;7.94;95.00
75192;BME280;63771;52.580;9.734;2023-02-23T11:12:24;101017.47;;;7.94;95.22
75192;BME280;63771;52.580;9.734;2023-02-23T11:14:55;101016.53;;;7.93;95.18
75192;BME280;63771;52.580;9.734;2023-02-23T11:17:37;101009.09;;;7.95;94.55
75192;BME280;63771;52.580;9.734;2023-02-23T11:22:55;101016.41;;;7.92;95.05
75192;BME280;63771;52.580;9.734;2023-02-23T11:25:27;101007.13;;;7.92;95.16
75192;BME280;63771;52.580;9.734;2023-02-23T11:27:54;101011.44;;;7.93;95.19
75192;BME280;63771;52.580;9.734;2023-02-23T11:30:23;101008.31;;;7.96;95.32
75192;BME280;63771;52.580;9.734;2023-02-23T11:32:58;101004.75;;;7.94;94.42
75192;BME280;63771;52.580;9.734;2023-02-23T11:35:34;101006.09;;;7.90;94.61
75192;BME280;63771;52.580;9.734;2023-02-23T11:38:14;101004.00;;;7.95;95.02
75192;BME280;63771;52.580;9.734;2023-02-23T11:40:40;101010.88;;;7.96;95.01
75192;BME280;63771;52.580;9.734;2023-02-23T11:43:11;101007.56;;;7.97;94.91
75192;BME280;63771;52.580;9.734;2023-02-23T11:45:49;101003.25;;;7.96;94.58
75192;BME280;63771;52.580;9.734;2023-02-23T11:48:33;100992.94;;;7.94;95.03
75192;BME280;63771;52.580;9.734;2023-02-23T11:51:01;101006.09;;;7.99;94.92
75192;BME280;63771;52.580;9.734;2023-02-23T11:53:31;100999.19;;;7.98;95.07
75192;BME280;63771;52.580;9.734;2023-02-23T11:56:01;100994.28;;;7.99;95.09
75192;BME280;63771;52.580;9.734;2023-02-23T11:58:54;100991.56;;;8.06;94.84
75192;BME280;63771;52.580;9.734;2023-02-23T12:01:40;100990.81;;;8.07;94.70
75192;BME280;63771;52.580;9.734;2023-02-23T12:04:21;100987.38;;;8.07;94.88
75192;BME280;63771;52.580;9.734;2023-02-23T12:06:48;100987.84;;;8.03;95.04
75192;BME280;63771;52.580;9.734;2023-02-23T12:09:31;100988.41;;;8.09;95.00
75192;BME280;63771;52.580;9.734;2023-02-23T12:12:09;100987.53;;;8.08;94.95
75192;BME280;63771;52.580;9.734;2023-02-23T12:14:40;100985.72;;;8.07;95.23
75192;BME280;63771;52.580;9.734;2023-02-23T12:17:16;100980.97;;;8.02;94.77
75192;BME280;63771;52.580;9.734;2023-02-23T12:19:45;100979.75;;;8.07;94.89
75192;BME280;63771;52.580;9.734;2023-02-23T12:22:17;100977.66;;;8.03;94.20
75192;BME280;63771;52.580;9.734;2023-02-23T12:27:28;100983.06;;;8.06;93.90
75192;BME280;63771;52.580;9.734;2023-02-23T12:30:03;100973.16;;;8.09;94.01
75192;BME280;63771;52.580;9.734;2023-02-23T12:35:25;100980.66;;;8.16;93.78
75192;BME280;63771;52.580;9.734;2023-02-23T12:38:02;100983.47;;;8.19;93.80
75192;BME280;63771;52.580;9.734;2023-02-23T12:40:34;100985.16;;;8.10;93.31
75192;BME280;63771;52.580;9.734;2023-02-23T12:43:18;100969.59;;;8.07;93.22
75192;BME280;63771;52.580;9.734;2023-02-23T12:45:56;100978.25;;;8.09;94.01
75192;BME280;63771;52.580;9.734;2023-02-23T12:48:36;100980.78;;;8.09;93.89
75192;BME280;63771;52.580;9.734;2023-02-23T12:51:15;100971.69;;;8.02;93.77
75192;BME280;63771;52.580;9.734;2023-02-23T12:53:43;100981.84;;;8.02;93.91
75192;BME280;63771;52.580;9.734;2023-02-23T12:56:29;100969.59;;;7.98;94.12
75192;BME280;63771;52.580;9.734;2023-02-23T13:01:52;100980.06;;;8.01;94.68
75192;BME280;63771;52.580;9.734;2023-02-23T13:04:47;100976.03;;;8.03;94.63
75192;BME280;63771;52.580;9.734;2023-02-23T13:07:41;100980.97;;;8.02;94.38
75192;BME280;63771;52.580;9.734;2023-02-23T13:10:40;100979.19;;;8.01;94.67
75192;BME280;63771;52.580;9.734;2023-02-23T13:13:22;100979.19;;;8.01;94.04
75192;BME280;63771;52.580;9.734;2023-02-23T13:18:35;100976.78;;;8.02;94.11
75192;BME280;63771;52.580;9.734;2023-02-23T13:23:38;100969.00;;;8.01;94.03
75192;BME280;63771;52.580;9.734;2023-02-23T13:26:22;100964.53;;;7.98;94.04
75192;BME280;63771;52.580;9.734;2023-02-23T13:29:02;100973.22;;;8.00;94.33
75192;BME280;63771;52.580;9.734;2023-02-23T13:31:35;100964.53;;;7.98;94.40
75192;BME280;63771;52.580;9.734;2023-02-23T13:34:02;100968.72;;;7.98;94.61
75192;BME280;63771;52.580;9.734;2023-02-23T13:36:31;100961.84;;;7.97;94.41
75192;BME280;63771;52.580;9.734;2023-02-23T13:41:39;100955.56;;;7.93;94.57
75192;BME280;63771;52.580;9.734;2023-02-23T13:44:54;100960.94;;;7.96;94.73
75192;BME280;63771;52.580;9.734;2023-02-23T13:47:05;100969.19;;;7.94;94.72
75192;BME280;63771;52.580;9.734;2023-02-23T13:49:48;100964.53;;;7.98;94.84
75192;BME280;63771;52.580;9.734;2023-02-23T13:52:39;100969.78;;;8.00;94.96
75192;BME280;63771;52.580;9.734;2023-02-23T13:57:54;100974.84;;;8.00;94.51
75192;BME280;63771;52.580;9.734;2023-02-23T14:00:22;100969.00;;;8.01;95.18
75192;BME280;63771;52.580;9.734;2023-02-23T14:02:48;100969.91;;;8.01;95.11
75192;BME280;63771;52.580;9.734;2023-02-23T14:07:43;100966.94;;;7.97;94.95
75192;BME280;63771;52.580;9.734;2023-02-23T14:10:22;100970.81;;;7.93;95.36
75192;BME280;63771;52.580;9.734;2023-02-23T14:15:45;100966.03;;;7.96;95.24
75192;BME280;63771;52.580;9.734;2023-02-23T14:20:43;100967.69;;;7.96;94.86
75192;BME280;63771;52.580;9.734;2023-02-23T14:23:15;100971.13;;;7.96;95.08
75192;BME280;63771;52.580;9.734;2023-02-23T14:25:50;100972.00;;;7.97;94.88
75192;BME280;63771;52.580;9.734;2023-02-23T14:28:23;100976.34;;;7.98;94.94
75192;BME280;63771;52.580;9.734;2023-02-23T14:33:48;100975.00;;;8.01;95.05
75192;BME280;63771;52.580;9.734;2023-02-23T14:38:49;100969.00;;;8.01;94.96
75192;BME280;63771;52.580;9.734;2023-02-23T14:41:20;100977.22;;;7.98;95.00
75192;BME280;63771;52.580;9.734;2023-02-23T14:43:51;100970.81;;;7.93;94.73
75192;BME280;63771;52.580;9.734;2023-02-23T14:46:23;100969.91;;;7.93;94.61
75192;BME280;63771;52.580;9.734;2023-02-23T14:48:58;100963.81;;;7.82;95.09
75192;BME280;63771;52.580;9.734;2023-02-23T14:51:35;100969.94;;;7.84;95.18
75192;BME280;63771;52.580;9.734;2023-02-23T14:56:51;100967.72;;;7.78;95.10
75192;BME280;63771;52.580;9.734;2023-02-23T14:59:22;100974.13;;;7.83;95.23
75192;BME280;63771;52.580;9.734;2023-02-23T15:01:49;100973.81;;;7.80;95.25
75192;BME280;63771;52.580;9.734;2023-02-23T15:04:18;100967.72;;;7.78;94.84